createdAt,value
2023-04-16T00:01:47.766Z,98212.50
2023-04-16T00:04:14.634Z,98214.06
2023-04-16T00:09:14.942Z,98213.88
2023-04-16T00:14:14.723Z,98210.66
2023-04-16T00:16:41.333Z,98213.63
2023-04-16T00:19:08.335Z,98211.97
2023-04-16T00:21:35.144Z,98217.13
2023-04-16T00:24:01.923Z,98218.25
2023-04-16T00:26:28.621Z,98217.56
2023-04-16T00:28:55.264Z,98212.59
2023-04-16T00:34:14.785Z,98215.91
2023-04-16T00:36:41.484Z,98216.31
2023-04-16T00:39:08.519Z,98215.19
2023-04-16T00:41:35.520Z,98217.75
2023-04-16T00:44:02.311Z,98211.88
2023-04-16T00:46:29.080Z,98218.81
2023-04-16T00:48:56.579Z,98217.94
2023-04-16T00:51:23.746Z,98220.22
2023-04-16T00:53:50.965Z,98222.22
2023-04-16T00:56:18.284Z,98225.41
2023-04-16T01:23:48.095Z,98233.38
2023-04-16T01:28:55.155Z,98236.47
2023-04-16T01:31:21.779Z,98236.38
2023-04-16T01:33:48.469Z,98238.91
2023-04-16T01:36:15.105Z,98239.69
2023-04-16T01:38:41.779Z,98228.66
2023-04-16T01:41:08.497Z,98233.38
2023-04-16T01:43:35.167Z,98241.75
2023-04-16T01:46:18.255Z,98231.88
2023-04-16T01:48:45.116Z,98241.13
2023-04-16T01:51:11.867Z,98234.03
2023-04-16T01:59:17.889Z,98244.53
2023-04-16T02:01:44.616Z,98243.41
2023-04-16T02:04:12.610Z,98240.41
2023-04-16T02:06:39.393Z,98237.25
2023-04-16T02:09:06.016Z,98241.81
2023-04-16T02:11:32.675Z,98237.06
2023-04-16T02:13:59.270Z,98234.81
2023-04-16T02:16:26.554Z,98242.88
2023-04-16T02:18:53.337Z,98234.97
2023-04-16T02:21:20.454Z,98237.84
2023-04-16T02:23:51.879Z,98236.72
2023-04-16T02:26:18.818Z,98236.09
2023-04-16T02:28:45.646Z,98242.97
2023-04-16T02:31:12.389Z,98247.16
2023-04-16T02:33:39.050Z,98246.38
2023-04-16T02:36:06.240Z,98248.13
2023-04-16T02:38:32.885Z,98250.16
2023-04-16T02:40:59.625Z,98243.75
2023-04-16T02:43:26.281Z,98247.16
2023-04-16T02:45:53.063Z,98251.19
2023-04-16T02:48:19.665Z,98245.59
2023-04-16T02:50:46.237Z,98247.81
2023-04-16T02:53:12.917Z,98244.34
2023-04-16T02:55:39.600Z,98248.47
2023-04-16T02:58:06.252Z,98252.41
2023-04-16T03:00:32.897Z,98252.34
2023-04-16T03:02:59.564Z,98249.63
2023-04-16T03:05:26.317Z,98256.81
2023-04-16T03:07:56.888Z,98257.00
2023-04-16T03:10:24.344Z,98253.56
2023-04-16T03:12:51.117Z,98256.63
2023-04-16T03:15:17.938Z,98250.50
2023-04-16T03:17:44.689Z,98250.94
2023-04-16T03:20:11.703Z,98258.13
2023-04-16T03:22:41.339Z,98259.72
2023-04-16T03:25:08.380Z,98261.94
2023-04-16T03:27:35.325Z,98262.25
2023-04-16T03:30:02.479Z,98260.00
2023-04-16T03:32:29.175Z,98262.25
2023-04-16T03:34:56.180Z,98258.84
2023-04-16T03:37:23.294Z,98267.38
2023-04-16T03:39:49.893Z,98263.59
2023-04-16T03:42:16.544Z,98274.31
2023-04-16T03:44:43.173Z,98274.31
2023-04-16T03:47:09.780Z,98274.44
2023-04-16T03:49:36.385Z,98272.16
2023-04-16T03:52:03.180Z,98272.88
2023-04-16T03:54:29.818Z,98274.31
2023-04-16T03:56:57.271Z,98273.22
2023-04-16T03:59:23.958Z,98280.69
2023-04-16T04:01:51.067Z,98276.75
2023-04-16T04:04:17.852Z,98279.81
2023-04-16T04:06:46.447Z,98281.94
2023-04-16T04:09:13.945Z,98283.69
2023-04-16T04:11:40.572Z,98278.50
2023-04-16T04:14:07.260Z,98279.03
2023-04-16T04:16:34.463Z,98284.28
2023-04-16T04:19:01.596Z,98280.78
2023-04-16T04:21:29.428Z,98283.59
2023-04-16T04:23:56.280Z,98286.56
2023-04-16T04:26:23.064Z,98286.31
2023-04-16T04:28:49.933Z,98294.38
2023-04-16T04:31:16.786Z,98293.16
2023-04-16T04:33:43.429Z,98297.72
2023-04-16T04:36:10.100Z,98298.59
2023-04-16T04:38:36.747Z,98297.63
2023-04-16T04:41:03.510Z,98303.00
2023-04-16T04:43:30.100Z,98305.34
2023-04-16T04:45:56.770Z,98312.44
2023-04-16T04:48:26.861Z,98308.06
2023-04-16T04:50:54.094Z,98316.75
2023-04-16T04:53:20.858Z,98316.31
2023-04-16T04:55:50.903Z,98318.69
2023-04-16T04:58:19.658Z,98319.84
2023-04-16T05:00:46.408Z,98324.13
2023-04-16T05:03:13.200Z,98316.22
2023-04-16T05:05:40.827Z,98326.25
2023-04-16T05:08:07.749Z,98325.28
2023-04-16T05:10:34.424Z,98332.38
2023-04-16T05:13:01.327Z,98334.41
2023-04-16T05:15:28.150Z,98342.28
2023-04-16T05:17:56.369Z,98340.53
2023-04-16T05:20:24.511Z,98350.28
2023-04-16T05:22:51.641Z,98348.84
2023-04-16T05:25:18.645Z,98356.25
2023-04-16T05:27:45.342Z,98345.53
2023-04-16T05:30:12.498Z,98354.22
2023-04-16T05:32:41.264Z,98357.19
2023-04-16T05:35:08.364Z,98361.31
2023-04-16T05:37:35.006Z,98358.69
2023-04-16T05:40:01.679Z,98367.22
2023-04-16T05:42:28.359Z,98368.16
2023-04-16T05:44:55.030Z,98371.25
2023-04-16T05:52:35.942Z,98383.53
2023-04-16T05:55:02.630Z,98377.22
2023-04-16T05:57:29.825Z,98381.16
2023-04-16T05:59:56.556Z,98387.66
2023-04-16T06:02:23.523Z,98378.38
2023-04-16T06:04:50.213Z,98385.44
2023-04-16T06:07:16.833Z,98391.16
2023-04-16T06:09:43.433Z,98389.41
2023-04-16T06:12:10.186Z,98390.31
2023-04-16T06:14:36.806Z,98395.81
2023-04-16T06:17:03.415Z,98386.44
2023-04-16T06:19:30.016Z,98395.03
2023-04-16T06:21:57.229Z,98394.13
2023-04-16T06:24:23.856Z,98393.03
2023-04-16T06:26:50.621Z,98396.19
2023-04-16T06:29:17.247Z,98396.44
2023-04-16T06:31:43.951Z,98394.88
2023-04-16T06:36:49.164Z,98400.81
2023-04-16T06:39:15.841Z,98401.50
2023-04-16T06:41:42.815Z,98405.28
2023-04-16T06:44:09.471Z,98402.50
2023-04-16T06:49:13.665Z,98402.31
2023-04-16T06:51:40.315Z,98406.78
2023-04-16T06:54:06.987Z,98404.34
2023-04-16T06:56:34.100Z,98409.50
2023-04-16T06:59:01.191Z,98415.16
2023-04-16T07:01:28.663Z,98415.66
2023-04-16T07:03:55.667Z,98413.38
2023-04-16T07:06:22.462Z,98419.97
2023-04-16T07:08:49.199Z,98418.91
2023-04-16T07:13:54.140Z,98418.91
2023-04-16T07:16:21.161Z,98419.81
2023-04-16T07:21:19.222Z,98423.91
2023-04-16T07:23:45.912Z,98428.38
2023-04-16T07:26:12.609Z,98428.03
2023-04-16T07:28:39.265Z,98432.19
2023-04-16T07:31:06.016Z,98436.47
2023-04-16T07:33:32.617Z,98433.19
2023-04-16T07:35:59.336Z,98437.38
2023-04-16T07:38:25.960Z,98434.22
2023-04-16T07:40:52.699Z,98427.34
2023-04-16T07:43:19.292Z,98442.13
2023-04-16T07:45:46.089Z,98445.09
2023-04-16T07:48:12.740Z,98452.66
2023-04-16T07:50:39.474Z,98448.59
2023-04-16T07:53:07.897Z,98450.28
2023-04-16T07:55:34.579Z,98450.72
2023-04-16T07:58:01.449Z,98449.25
2023-04-16T08:00:28.146Z,98455.03
2023-04-16T08:02:55.291Z,98462.41
2023-04-16T08:05:22.106Z,98459.34
2023-04-16T08:07:48.795Z,98464.59
2023-04-16T08:10:15.852Z,98462.56
2023-04-16T08:12:42.538Z,98463.56
2023-04-16T08:15:09.529Z,98464.59
2023-04-16T08:17:37.818Z,98464.59
2023-04-16T08:20:05.352Z,98481.03
2023-04-16T08:22:33.379Z,98475.75
2023-04-16T08:25:00.218Z,98475.91
2023-04-16T08:27:26.914Z,98482.44
2023-04-16T08:29:53.570Z,98489.38
2023-04-16T08:32:20.195Z,98490.06
2023-04-16T08:34:46.936Z,98494.38
2023-04-16T08:37:13.601Z,98493.13
2023-04-16T08:39:40.255Z,98502.53
2023-04-16T08:42:13.361Z,98504.22
2023-04-16T08:44:49.265Z,98505.88
2023-04-16T08:47:16.598Z,98512.28
2023-04-16T08:49:46.441Z,98512.13
2023-04-16T08:52:17.074Z,98503.50
2023-04-16T08:54:56.502Z,98506.84
2023-04-16T08:57:26.973Z,98505.00
2023-04-16T08:59:55.452Z,98508.19
2023-04-16T09:02:22.785Z,98502.28
2023-04-16T09:04:51.559Z,98509.41
2023-04-16T09:07:21.026Z,98511.84
2023-04-16T09:09:50.553Z,98514.13
2023-04-16T09:12:17.858Z,98516.34
2023-04-16T09:14:49.612Z,98515.91
2023-04-16T09:17:17.077Z,98518.00
2023-04-16T09:19:44.315Z,98530.13
2023-04-16T09:22:11.748Z,98525.09
2023-04-16T09:24:42.214Z,98523.28
2023-04-16T09:27:09.133Z,98530.66
2023-04-16T09:29:40.736Z,98526.88
2023-04-16T09:32:12.066Z,98524.50
2023-04-16T09:35:02.447Z,98529.44
2023-04-16T09:40:04.212Z,98536.09
2023-04-16T09:42:32.717Z,98539.63
2023-04-16T09:45:01.322Z,98539.00
2023-04-16T10:05:47.362Z,98555.56
2023-04-16T10:08:20.359Z,98562.19
2023-04-16T10:10:54.484Z,98557.06
2023-04-16T10:13:31.391Z,98559.00
2023-04-16T10:16:04.769Z,98561.94
2023-04-16T10:18:39.059Z,98563.22
2023-04-16T10:21:13.026Z,98559.00
2023-04-16T10:34:33.852Z,98567.97
2023-04-16T10:37:06.583Z,98564.81
2023-04-16T10:39:39.417Z,98571.03
2023-04-16T10:42:13.202Z,98572.72
2023-04-16T10:44:46.469Z,98574.84
2023-04-16T10:47:19.238Z,98577.03
2023-04-16T10:49:52.173Z,98574.06
2023-04-16T10:54:59.653Z,98576.78
2023-04-16T10:57:29.468Z,98564.84
2023-04-16T10:59:56.452Z,98574.13
2023-04-16T11:02:29.350Z,98573.97
2023-04-16T11:04:58.015Z,98574.56
2023-04-16T11:07:35.180Z,98582.75
2023-04-16T11:10:06.269Z,98582.94
2023-04-16T11:12:41.188Z,98579.94
2023-04-16T11:15:10.540Z,98577.75
2023-04-16T11:17:41.270Z,98584.94
2023-04-16T11:22:42.278Z,98586.97
2023-04-16T11:25:09.438Z,98582.25
2023-04-16T11:27:36.080Z,98572.91
2023-04-16T11:30:05.648Z,98581.19
2023-04-16T11:32:36.422Z,98585.53
2023-04-16T11:35:06.005Z,98576.25
2023-04-16T11:37:34.417Z,98585.09
2023-04-16T11:40:01.800Z,98584.69
2023-04-16T11:42:28.705Z,98580.63
2023-04-16T11:44:56.746Z,98591.97
2023-04-16T11:47:24.548Z,98582.94
2023-04-16T11:49:51.757Z,98587.03
2023-04-16T11:52:33.640Z,98592.16
2023-04-16T11:55:00.377Z,98592.78
2023-04-16T11:57:32.118Z,98585.50
2023-04-16T12:00:01.524Z,98587.69
2023-04-16T12:02:37.663Z,98593.94
2023-04-16T12:05:05.811Z,98590.16
2023-04-16T12:07:32.543Z,98591.66
2023-04-16T12:12:39.558Z,98593.41
2023-04-16T12:15:06.973Z,98591.47
2023-04-16T12:20:15.524Z,98596.28
2023-04-16T12:22:47.465Z,98599.28
2023-04-16T12:25:16.737Z,98596.91
2023-04-16T12:30:25.261Z,98600.09
2023-04-16T12:33:13.029Z,98602.56
2023-04-16T12:35:42.093Z,98605.69
2023-04-16T12:38:08.760Z,98604.13
2023-04-16T12:40:36.294Z,98603.09
2023-04-16T12:43:03.062Z,98606.50
2023-04-16T12:48:01.143Z,98600.09
2023-04-16T12:50:29.016Z,98602.63
2023-04-16T12:52:56.767Z,98605.28
2023-04-16T12:57:54.903Z,98601.59
2023-04-16T13:02:56.321Z,98599.28
2023-04-16T13:05:23.027Z,98595.25
2023-04-16T13:07:49.708Z,98601.31
2023-04-16T13:10:16.935Z,98600.09
2023-04-16T13:12:43.634Z,98600.34
2023-04-16T13:15:10.817Z,98595.69
2023-04-16T13:17:37.624Z,98600.00
2023-04-16T13:20:04.631Z,98602.28
2023-04-16T13:22:31.342Z,98599.38
2023-04-16T13:24:58.657Z,98608.00
2023-04-16T13:27:25.418Z,98605.44
2023-04-16T13:29:52.149Z,98595.69
2023-04-16T13:39:38.774Z,98603.94
2023-04-16T13:42:11.511Z,98606.31
2023-04-16T13:44:44.243Z,98608.16
2023-04-16T13:49:48.535Z,98609.41
2023-04-16T13:52:15.197Z,98606.22
2023-04-16T13:54:41.847Z,98607.38
2023-04-16T13:57:08.587Z,98610.88
2023-04-16T13:59:35.250Z,98605.44
2023-04-16T14:02:02.500Z,98604.41
2023-04-16T14:07:00.653Z,98606.59
2023-04-16T14:12:05.568Z,98610.03
2023-04-16T14:14:32.237Z,98607.66
2023-04-16T14:16:59.752Z,98608.53
2023-04-16T14:19:26.447Z,98607.66
2023-04-16T14:21:53.098Z,98609.22
2023-04-16T14:24:19.717Z,98612.03
2023-04-16T14:29:23.786Z,98607.00
2023-04-16T14:31:51.202Z,98608.84
2023-04-16T14:34:17.882Z,98609.81
2023-04-16T14:36:44.640Z,98603.91
2023-04-16T14:39:12.045Z,98605.72
2023-04-16T14:44:16.976Z,98600.56
2023-04-16T14:46:44.125Z,98601.41
2023-04-16T14:51:42.772Z,98611.22
2023-04-16T14:54:09.951Z,98602.91
2023-04-16T14:56:36.624Z,98613.88
2023-04-16T14:59:03.463Z,98614.59
2023-04-16T15:04:09.222Z,98615.63
2023-04-16T15:06:36.654Z,98616.28
2023-04-16T15:09:04.224Z,98620.31
2023-04-16T15:11:30.965Z,98613.63
2023-04-16T15:13:57.615Z,98612.50
2023-04-16T15:16:24.326Z,98614.13
2023-04-16T15:18:51.218Z,98623.47
2023-04-16T15:21:17.886Z,98610.72
2023-04-16T15:23:44.590Z,98618.72
2023-04-16T15:26:11.481Z,98612.38
2023-04-16T15:28:38.192Z,98618.22
2023-04-16T15:31:05.013Z,98617.38
2023-04-16T15:33:31.774Z,98620.75
2023-04-16T15:35:59.218Z,98615.47
2023-04-16T15:38:25.882Z,98625.69
2023-04-16T15:40:52.502Z,98624.25
2023-04-16T15:43:19.176Z,98619.16
2023-04-16T15:45:45.977Z,98625.41
2023-04-16T15:48:12.647Z,98619.97
2023-04-16T15:50:39.636Z,98619.16
2023-04-16T15:53:06.327Z,98630.22
2023-04-16T15:58:04.240Z,98628.47
2023-04-16T16:00:30.926Z,98630.06
2023-04-16T16:02:57.673Z,98629.38
2023-04-16T16:07:55.769Z,98633.59
2023-04-16T16:10:22.704Z,98635.94
2023-04-16T16:12:49.501Z,98640.59
2023-04-16T16:15:16.457Z,98629.78
2023-04-16T16:17:43.107Z,98632.69
2023-04-16T16:20:10.727Z,98642.63
2023-04-16T16:22:38.426Z,98642.53
2023-04-16T16:25:05.956Z,98632.88
2023-04-16T16:27:32.610Z,98638.31
2023-04-16T16:30:01.058Z,98647.91
2023-04-16T16:32:27.797Z,98643.78
2023-04-16T16:34:54.623Z,98638.78
2023-04-16T16:37:21.278Z,98639.47
2023-04-16T16:39:47.918Z,98647.09
2023-04-16T16:42:18.770Z,98645.97
2023-04-16T16:44:47.661Z,98645.72
2023-04-16T16:47:14.272Z,98649.16
2023-04-16T16:52:12.257Z,98641.84
2023-04-16T16:54:38.911Z,98644.94
2023-04-16T16:57:05.718Z,98649.22
2023-04-16T16:59:32.391Z,98648.25
2023-04-16T17:01:59.105Z,98649.47
2023-04-16T17:06:57.059Z,98650.81
2023-04-16T17:09:23.796Z,98651.88
2023-04-16T17:11:50.560Z,98645.72
2023-04-16T17:16:50.056Z,98650.63
2023-04-16T17:19:18.029Z,98646.50
2023-04-16T17:21:44.634Z,98658.56
2023-04-16T17:24:11.447Z,98657.59
2023-04-16T17:26:41.021Z,98657.59
2023-04-16T17:29:07.702Z,98653.69
2023-04-16T17:34:06.497Z,98658.28
2023-04-16T17:36:33.183Z,98651.69
2023-04-16T17:38:59.816Z,98661.19
2023-04-16T17:41:26.432Z,98657.66
2023-04-16T17:43:53.083Z,98662.66
2023-04-16T17:46:19.922Z,98662.66
2023-04-16T17:48:48.957Z,98667.41
2023-04-16T17:51:16.707Z,98669.72
2023-04-16T17:53:43.734Z,98673.66
2023-04-16T17:56:11.504Z,98672.25
2023-04-16T17:58:38.120Z,98680.59
2023-04-16T18:01:05.710Z,98671.03
2023-04-16T18:03:33.072Z,98676.28
2023-04-16T18:05:59.969Z,98687.19
2023-04-16T18:08:27.579Z,98680.69
2023-04-16T18:10:55.568Z,98674.78
2023-04-16T18:13:22.614Z,98678.75
2023-04-16T18:15:49.405Z,98680.59
2023-04-16T18:18:16.405Z,98677.97
2023-04-16T18:20:43.094Z,98684.00
2023-04-16T18:23:09.952Z,98688.97
2023-04-16T18:25:36.696Z,98690.38
2023-04-16T18:28:05.309Z,98692.22
2023-04-16T18:30:32.308Z,98694.78
2023-04-16T18:35:28.569Z,98700.84
2023-04-16T18:37:55.263Z,98697.66
2023-04-16T18:40:21.910Z,98700.66
2023-04-16T18:42:48.566Z,98703.47
2023-04-16T18:45:20.962Z,98706.44
2023-04-16T18:47:48.334Z,98706.53
2023-04-16T18:50:15.053Z,98708.28
2023-04-16T18:52:41.777Z,98712.50
2023-04-16T18:55:08.845Z,98711.00
2023-04-16T18:57:35.433Z,98723.59
2023-04-16T19:00:05.723Z,98715.34
2023-04-16T19:02:32.647Z,98728.06
2023-04-16T19:04:59.271Z,98719.19
2023-04-16T19:07:25.907Z,98707.84
2023-04-16T19:09:52.492Z,98726.28
2023-04-16T19:12:19.084Z,98729.13
2023-04-16T19:14:45.943Z,98727.44
2023-04-16T19:17:12.628Z,98728.75
2023-04-16T19:19:39.283Z,98734.66
2023-04-16T19:22:05.937Z,98737.41
2023-04-16T19:24:34.137Z,98740.81
2023-04-16T19:27:02.592Z,98732.25
2023-04-16T19:29:33.226Z,98734.13
2023-04-16T19:31:59.980Z,98740.56
2023-04-16T19:36:58.127Z,98734.69
2023-04-16T19:39:28.295Z,98742.16
2023-04-16T19:41:54.944Z,98736.47
2023-04-16T19:44:23.375Z,98734.91
2023-04-16T19:46:50.046Z,98735.69
2023-04-16T19:51:47.970Z,98740.16
2023-04-16T19:54:14.719Z,98745.16
2023-04-16T19:56:41.750Z,98745.25
2023-04-16T19:59:08.475Z,98740.59
2023-04-16T20:01:35.304Z,98740.16
2023-04-16T20:09:07.454Z,98741.75
2023-04-16T20:11:34.845Z,98746.75
2023-04-16T20:14:01.818Z,98748.56
2023-04-16T20:16:28.777Z,98747.69
2023-04-16T20:18:55.596Z,98746.66
2023-04-16T20:21:22.272Z,98750.63
2023-04-16T20:26:20.623Z,98752.81
2023-04-16T20:28:47.235Z,98748.81
2023-04-16T20:31:13.878Z,98756.09
2023-04-16T20:33:40.849Z,98749.75
2023-04-16T20:38:45.242Z,98749.97
2023-04-16T20:41:14.721Z,98751.25
2023-04-16T20:43:42.431Z,98746.25
2023-04-16T20:46:09.240Z,98752.41
2023-04-16T20:48:36.027Z,98747.00
2023-04-16T20:51:04.796Z,98747.78
2023-04-16T20:53:32.817Z,98747.91
2023-04-16T20:56:03.019Z,98746.75
2023-04-16T20:58:30.254Z,98740.16
2023-04-16T21:00:57.726Z,98744.22
2023-04-16T21:03:24.717Z,98742.69
2023-04-16T21:05:55.969Z,98752.44
2023-04-16T21:08:24.077Z,98741.63
2023-04-16T21:10:51.422Z,98741.84
2023-04-16T21:13:18.831Z,98745.59
2023-04-16T21:15:45.926Z,98740.59
2023-04-16T21:18:12.998Z,98738.13
2023-04-16T21:20:40.097Z,98740.84
2023-04-16T21:23:06.820Z,98745.06
2023-04-16T21:25:33.797Z,98739.72
2023-04-16T21:28:00.461Z,98745.28
2023-04-16T21:30:27.322Z,98747.78
2023-04-16T21:32:54.098Z,98745.41
2023-04-16T21:35:20.760Z,98743.34
2023-04-16T21:37:47.423Z,98746.91
2023-04-16T21:40:14.223Z,98742.94
2023-04-16T21:45:20.689Z,98740.91
2023-04-16T21:47:47.340Z,98748.25
2023-04-16T21:50:14.087Z,98744.06
2023-04-16T21:52:46.435Z,98746.06
2023-04-16T21:55:14.628Z,98744.50
2023-04-16T21:57:41.288Z,98741.25
2023-04-16T22:02:44.434Z,98740.28
2023-04-16T22:05:11.833Z,98739.75
2023-04-16T22:07:38.606Z,98738.19
2023-04-16T22:10:06.145Z,98746.69
2023-04-16T22:12:32.885Z,98739.72
2023-04-16T22:15:02.917Z,98738.72
2023-04-16T22:17:30.431Z,98737.81
2023-04-16T22:20:00.628Z,98743.63
2023-04-16T22:22:27.330Z,98735.78
2023-04-16T22:27:25.394Z,98735.56
2023-04-16T22:29:52.146Z,98727.78
2023-04-16T22:32:18.955Z,98736.13
2023-04-16T22:34:46.005Z,98735.16
2023-04-16T22:37:12.615Z,98730.59
2023-04-16T22:39:39.293Z,98727.06
2023-04-16T22:42:06.178Z,98727.88
2023-04-16T22:44:32.821Z,98736.56
2023-04-16T22:46:59.411Z,98732.97
2023-04-16T22:49:26.759Z,98736.72
2023-04-16T22:51:53.387Z,98733.84
2023-04-16T22:54:20.030Z,98728.66
2023-04-16T22:56:47.067Z,98732.53
2023-04-16T22:59:13.852Z,98728.66
2023-04-16T23:01:42.311Z,98738.66
2023-04-16T23:04:09.145Z,98729.34
2023-04-16T23:06:35.802Z,98732.06
2023-04-16T23:09:02.684Z,98729.34
2023-04-16T23:11:29.385Z,98733.09
2023-04-16T23:13:55.985Z,98730.38
2023-04-16T23:16:22.736Z,98735.50
2023-04-16T23:18:49.528Z,98737.75
2023-04-16T23:21:16.167Z,98727.53
2023-04-16T23:23:42.784Z,98728.78
2023-04-16T23:26:09.764Z,98729.00
2023-04-16T23:28:36.372Z,98732.75
2023-04-16T23:31:04.214Z,98728.66
2023-04-16T23:33:32.598Z,98729.81
2023-04-16T23:35:59.223Z,98736.88
2023-04-16T23:41:03.573Z,98723.81
2023-04-16T23:43:30.235Z,98732.31
2023-04-16T23:45:56.980Z,98723.97
2023-04-16T23:48:23.722Z,98728.25
2023-04-16T23:50:50.341Z,98728.25
2023-04-16T23:53:17.505Z,98730.72
2023-04-16T23:55:44.152Z,98731.44
2023-04-16T23:58:10.888Z,98722.09
